Time;durP1;ratioP1;P1;durP2;ratioP2;P2;SDS_P1;SDS_P2;PMS_P1;PMS_P2;Temp;Humidity;BMP_temperature;BMP_pressure;BME280_temperature;BME280_humidity;BME280_pressure;Samples;Min_cycle;Max_cycle;Signal;HPM_P1;HPM_P2
2023/06/28 00:03:49;;;;;;;;;;;17.90;99.90;;;;;;8417050;28;20287;-73
2023/06/28 00:07:50;;;;;;;;;;;17.90;99.90;;;;;;8407606;28;19978;-74
2023/06/28 00:11:52;;;;;;;;;;;17.90;99.90;;;;;;8409810;28;19932;-73
2023/06/28 00:15:54;;;;;;;;;;;17.90;99.90;;;;;;8425435;28;20480;-73
2023/06/28 00:20:07;;;;;;;;;;;17.80;99.90;;;;;;8415527;28;19929;-73
2023/06/28 00:24:08;;;;;;;;;;;17.80;99.90;;;;;;8398887;28;20394;-74
2023/06/28 00:28:10;;;;;;;;;;;17.80;99.90;;;;;;8416599;28;19924;-73
2023/06/28 00:32:12;;;;;;;;;;;17.80;99.90;;;;;;8416783;28;20338;-73
2023/06/28 00:36:13;;;;;;;;;;;17.80;99.90;;;;;;8419950;28;20289;-73
2023/06/28 00:40:15;;;;;;;;;;;17.80;99.90;;;;;;8403767;28;20037;-73
2023/06/28 00:44:17;;;;;;;;;;;17.70;99.90;;;;;;8401074;28;19935;-74
2023/06/28 00:48:18;;;;;;;;;;;17.70;99.90;;;;;;8413963;28;19954;-73
2023/06/28 00:52:20;;;;;;;;;;;17.60;99.90;;;;;;8417010;28;20050;-73
2023/06/28 00:56:23;;;;;;;;;;;17.60;99.90;;;;;;8420095;28;19937;-73
2023/06/28 01:00:26;;;;;;;;;;;17.50;99.90;;;;;;8418972;28;20108;-73
2023/06/28 01:04:28;;;;;;;;;;;17.60;99.90;;;;;;8388884;28;20391;-73
2023/06/28 01:08:30;;;;;;;;;;;17.60;99.90;;;;;;8424933;28;19924;-73
2023/06/28 01:12:32;;;;;;;;;;;17.60;99.90;;;;;;8421403;28;19924;-73
2023/06/28 01:16:34;;;;;;;;;;;17.60;99.90;;;;;;8405785;28;19977;-73
2023/06/28 01:20:36;;;;;;;;;;;17.60;99.90;;;;;;8392507;28;19935;-73
2023/06/28 01:24:37;;;;;;;;;;;17.60;99.90;;;;;;8405111;28;19924;-73
2023/06/28 01:28:40;;;;;;;;;;;17.60;99.90;;;;;;8410314;28;19948;-73
2023/06/28 01:32:45;;;;;;;;;;;17.60;99.90;;;;;;8442472;27;19930;-73
2023/06/28 01:36:47;;;;;;;;;;;17.60;99.90;;;;;;8406168;28;19928;-73
2023/06/28 01:40:50;;;;;;;;;;;17.60;99.90;;;;;;8407834;28;20284;-73
2023/06/28 01:44:52;;;;;;;;;;;17.60;99.90;;;;;;8390053;28;20276;-73
2023/06/28 01:48:53;;;;;;;;;;;17.60;99.90;;;;;;8408414;28;20402;-73
2023/06/28 01:52:59;;;;;;;;;;;17.50;99.90;;;;;;8426825;27;19924;-73
2023/06/28 01:57:01;;;;;;;;;;;17.50;99.90;;;;;;8399773;28;19928;-73
2023/06/28 02:01:02;;;;;;;;;;;17.50;99.90;;;;;;8410253;28;20233;-73
2023/06/28 02:05:04;;;;;;;;;;;17.50;99.90;;;;;;8387210;28;20362;-73
2023/06/28 02:09:06;;;;;;;;;;;17.40;99.90;;;;;;8408355;28;22387;-74
2023/06/28 02:13:08;;;;;;;;;;;17.40;99.90;;;;;;8428034;28;20303;-73
2023/06/28 02:17:13;;;;;;;;;;;17.40;99.90;;;;;;8417791;28;20299;-73
2023/06/28 02:21:16;;;;;;;;;;;17.30;99.90;;;;;;8414693;28;20670;-73
2023/06/28 02:25:17;;;;;;;;;;;17.30;99.90;;;;;;8414679;28;19932;-73
2023/06/28 02:29:19;;;;;;;;;;;17.20;99.90;;;;;;8416073;28;19971;-73
2023/06/28 02:33:21;;;;;;;;;;;17.20;99.90;;;;;;8429331;28;19977;-73
2023/06/28 02:37:22;;;;;;;;;;;17.20;99.90;;;;;;8412891;28;19946;-73
2023/06/28 02:41:24;;;;;;;;;;;17.20;99.90;;;;;;8417917;28;19924;-74
2023/06/28 02:45:26;;;;;;;;;;;17.10;99.90;;;;;;8421174;28;19924;-74
2023/06/28 02:49:27;;;;;;;;;;;17.10;99.90;;;;;;8414118;28;19932;-73
2023/06/28 02:53:29;;;;;;;;;;;17.00;99.90;;;;;;8424690;28;19924;-74
2023/06/28 02:57:30;;;;;;;;;;;17.00;99.90;;;;;;8420444;28;19976;-73
2023/06/28 03:01:32;;;;;;;;;;;16.90;99.90;;;;;;8426319;28;19923;-73
2023/06/28 03:05:34;;;;;;;;;;;16.90;99.90;;;;;;8412897;28;19938;-73
2023/06/28 03:09:35;;;;;;;;;;;16.90;99.90;;;;;;8412944;28;19928;-73
2023/06/28 03:13:37;;;;;;;;;;;16.90;99.90;;;;;;8404552;28;19928;-73
2023/06/28 03:17:39;;;;;;;;;;;16.80;99.90;;;;;;8433131;28;19924;-73
2023/06/28 03:21:40;;;;;;;;;;;16.80;99.90;;;;;;8428998;28;19924;-73
2023/06/28 03:25:42;;;;;;;;;;;16.90;99.90;;;;;;8414641;28;19928;-73
2023/06/28 03:29:44;;;;;;;;;;;16.80;99.90;;;;;;8435609;27;19924;-73
2023/06/28 03:33:45;;;;;;;;;;;16.80;99.90;;;;;;8424765;28;19934;-73
2023/06/28 03:37:51;;;;;;;;;;;16.80;99.90;;;;;;8410945;28;20387;-73
2023/06/28 03:41:53;;;;;;;;;;;16.80;99.90;;;;;;8402295;28;19935;-73
2023/06/28 03:45:54;;;;;;;;;;;16.80;99.90;;;;;;8400475;28;19999;-73
2023/06/28 03:49:56;;;;;;;;;;;16.80;99.90;;;;;;8426280;28;20269;-73
2023/06/28 03:53:58;;;;;;;;;;;16.80;99.90;;;;;;8419709;28;20394;-73
2023/06/28 03:57:59;;;;;;;;;;;16.80;99.90;;;;;;8429897;28;19954;-74
2023/06/28 04:02:01;;;;;;;;;;;16.80;99.90;;;;;;8427908;28;20031;-73
2023/06/28 04:06:03;;;;;;;;;;;16.80;99.90;;;;;;8425272;28;20042;-73
2023/06/28 04:10:05;;;;;;;;;;;16.80;99.90;;;;;;8419022;28;20324;-73
2023/06/28 04:14:06;;;;;;;;;;;16.80;99.90;;;;;;8426901;28;19928;-73
2023/06/28 04:18:08;;;;;;;;;;;16.70;99.90;;;;;;8400127;28;19924;-73
2023/06/28 04:22:10;;;;;;;;;;;16.70;99.90;;;;;;8412221;28;19924;-73
2023/06/28 04:26:12;;;;;;;;;;;16.70;99.90;;;;;;8401923;28;19924;-73
2023/06/28 04:30:14;;;;;;;;;;;16.70;99.90;;;;;;8422661;28;19924;-73
2023/06/28 04:34:19;;;;;;;;;;;16.70;99.90;;;;;;8430045;27;19928;-73
2023/06/28 04:38:20;;;;;;;;;;;16.70;99.90;;;;;;8413427;28;19924;-73
2023/06/28 04:42:22;;;;;;;;;;;16.70;99.90;;;;;;8392281;28;19974;-73
2023/06/28 04:46:26;;;;;;;;;;;16.70;99.90;;;;;;8395884;28;19925;-73
2023/06/28 04:50:28;;;;;;;;;;;16.70;99.90;;;;;;8365175;28;19933;-73
2023/06/28 04:54:30;;;;;;;;;;;16.70;99.90;;;;;;8380079;28;19925;-73
2023/06/28 04:58:33;;;;;;;;;;;16.70;99.90;;;;;;8375157;28;19953;-73
2023/06/28 05:02:35;;;;;;;;;;;16.70;99.90;;;;;;8389758;28;19974;-73
2023/06/28 05:06:36;;;;;;;;;;;16.60;99.90;;;;;;8389668;28;19924;-73
2023/06/28 05:10:38;;;;;;;;;;;16.60;99.90;;;;;;8375603;28;19978;-73
2023/06/28 05:14:40;;;;;;;;;;;16.60;99.90;;;;;;8372834;28;19924;-73
2023/06/28 05:18:42;;;;;;;;;;;16.60;99.90;;;;;;8380944;28;19939;-73
2023/06/28 05:22:48;;;;;;;;;;;16.60;99.90;;;;;;8372324;28;19932;-73
2023/06/28 05:26:50;;;;;;;;;;;16.60;99.90;;;;;;8366809;28;19975;-73
2023/06/28 05:30:51;;;;;;;;;;;16.60;99.90;;;;;;8382902;28;20352;-73
2023/06/28 05:34:53;;;;;;;;;;;16.70;99.90;;;;;;8371164;28;19951;-73
2023/06/28 05:38:56;;;;;;;;;;;16.70;99.90;;;;;;8378628;28;20025;-73
2023/06/28 05:42:58;;;;;;;;;;;16.70;99.90;;;;;;8389594;28;20449;-72
2023/06/28 05:47:00;;;;;;;;;;;16.80;99.90;;;;;;8402937;28;19933;-73
2023/06/28 05:51:02;;;;;;;;;;;16.70;99.90;;;;;;8404195;28;20380;-73
2023/06/28 05:55:04;;;;;;;;;;;16.70;99.90;;;;;;8411590;28;19928;-73
2023/06/28 05:59:06;;;;;;;;;;;16.70;99.90;;;;;;8405296;28;19924;-73
2023/06/28 06:03:41;;;;;;;;;;;16.70;99.90;;;;;;8397232;28;20343;-73
2023/06/28 06:07:43;;;;;;;;;;;16.70;99.90;;;;;;8405129;28;19936;-72
2023/06/28 06:11:45;;;;;;;;;;;16.70;99.90;;;;;;8406958;28;19931;-72
2023/06/28 06:15:47;;;;;;;;;;;16.70;99.90;;;;;;8414008;28;19923;-73
2023/06/28 06:19:48;;;;;;;;;;;16.70;99.90;;;;;;8417703;28;19947;-73
2023/06/28 06:23:51;;;;;;;;;;;16.80;99.90;;;;;;8385461;28;20489;-72
2023/06/28 06:27:53;;;;;;;;;;;16.80;99.90;;;;;;8391005;28;20654;-72
2023/06/28 06:31:54;;;;;;;;;;;16.80;99.90;;;;;;8412855;28;19923;-72
2023/06/28 06:35:56;;;;;;;;;;;16.80;99.90;;;;;;8389857;28;20384;-72
2023/06/28 06:39:58;;;;;;;;;;;16.80;99.90;;;;;;8390678;28;19928;-72
2023/06/28 06:43:59;;;;;;;;;;;16.80;99.90;;;;;;8410702;28;19925;-72
2023/06/28 06:48:03;;;;;;;;;;;16.80;99.90;;;;;;8418595;28;20140;-72
2023/06/28 06:52:05;;;;;;;;;;;16.80;99.90;;;;;;8387210;28;19936;-72
2023/06/28 06:56:07;;;;;;;;;;;16.80;99.90;;;;;;8420604;28;19981;-72
2023/06/28 07:00:09;;;;;;;;;;;16.80;99.90;;;;;;8394444;28;19932;-72
2023/06/28 07:04:11;;;;;;;;;;;16.90;99.90;;;;;;8407536;28;19946;-72
2023/06/28 07:08:13;;;;;;;;;;;16.90;99.90;;;;;;8404591;28;20284;-74
2023/06/28 07:12:14;;;;;;;;;;;16.90;99.90;;;;;;8407414;28;19991;-72
2023/06/28 07:16:17;;;;;;;;;;;16.90;99.90;;;;;;8410367;28;19940;-72
2023/06/28 07:20:19;;;;;;;;;;;16.90;99.90;;;;;;8409306;28;19928;-72
2023/06/28 07:24:20;;;;;;;;;;;16.90;99.90;;;;;;8400301;28;19939;-72
2023/06/28 07:28:22;;;;;;;;;;;16.90;99.90;;;;;;8406988;28;19936;-72
2023/06/28 07:37:29;;;;;;;;;;;17.00;99.90;;;;;;8414487;28;20535;-72
2023/06/28 07:41:31;;;;;;;;;;;17.00;99.90;;;;;;8420927;28;19978;-72
2023/06/28 07:45:33;;;;;;;;;;;17.00;99.90;;;;;;8411148;28;19928;-72
2023/06/28 07:49:35;;;;;;;;;;;17.00;99.90;;;;;;8412279;28;20015;-72
2023/06/28 07:53:37;;;;;;;;;;;17.10;99.90;;;;;;8385570;28;19936;-72
2023/06/28 07:57:38;;;;;;;;;;;17.10;99.90;;;;;;8413944;28;19931;-72
2023/06/28 08:01:40;;;;;;;;;;;17.10;99.90;;;;;;8415173;28;19931;-72
2023/06/28 08:05:42;;;;;;;;;;;17.10;99.90;;;;;;8408604;28;20403;-72
2023/06/28 08:14:48;;;;;;;;;;;17.20;99.90;;;;;;8385928;28;19919;-72
2023/06/28 08:18:49;;;;;;;;;;;17.20;99.90;;;;;;8382573;28;19940;-72
2023/06/28 08:22:51;;;;;;;;;;;17.20;99.90;;;;;;8392722;28;20380;-73
2023/06/28 08:26:53;;;;;;;;;;;17.30;99.90;;;;;;8383386;28;20379;-73
2023/06/28 08:41:02;;;;;;;;;;;17.40;99.90;;;;;;8387581;28;19923;-72
2023/06/28 08:45:04;;;;;;;;;;;17.40;99.90;;;;;;8382587;28;20035;-73
2023/06/28 08:49:06;;;;;;;;;;;17.40;99.90;;;;;;8381925;28;20331;-73
2023/06/28 08:53:09;;;;;;;;;;;17.40;99.90;;;;;;8383017;28;19933;-72
2023/06/28 08:57:12;;;;;;;;;;;17.40;99.90;;;;;;8399260;28;20745;-72
2023/06/28 09:01:14;;;;;;;;;;;17.40;99.90;;;;;;8400466;27;19935;-73
2023/06/28 09:20:27;;;;;;;;;;;17.60;99.90;;;;;;8378328;28;20425;-72
2023/06/28 09:24:31;;;;;;;;;;;17.70;99.90;;;;;;8373852;28;19973;-73
2023/06/28 09:33:37;;;;;;;;;;;17.90;99.90;;;;;;8387528;28;20082;-72
2023/06/28 09:37:38;;;;;;;;;;;18.00;99.90;;;;;;8380393;28;20515;-72
2023/06/28 09:46:45;;;;;;;;;;;18.10;99.90;;;;;;8378279;28;19938;-72
2023/06/28 09:50:47;;;;;;;;;;;18.30;99.90;;;;;;8400420;27;20453;-73
2023/06/28 09:54:49;;;;;;;;;;;18.40;99.90;;;;;;8387737;28;19924;-72
2023/06/28 10:04:14;;;;;;;;;;;18.60;99.90;;;;;;8382997;28;19923;-73
2023/06/28 10:18:24;;;;;;;;;;;18.90;99.90;;;;;;8388903;28;19919;-73
2023/06/28 10:22:26;;;;;;;;;;;18.90;99.90;;;;;;8386005;28;19924;-73
2023/06/28 10:26:28;;;;;;;;;;;19.00;99.90;;;;;;8386392;28;19929;-72
2023/06/28 10:30:31;;;;;;;;;;;19.10;99.90;;;;;;8383016;28;19929;-73
2023/06/28 10:34:34;;;;;;;;;;;19.20;99.90;;;;;;8382676;28;20023;-72
2023/06/28 10:38:37;;;;;;;;;;;19.30;99.90;;;;;;8388032;28;19974;-72
2023/06/28 10:42:39;;;;;;;;;;;19.50;99.90;;;;;;8381432;28;19925;-73
2023/06/28 10:46:41;;;;;;;;;;;19.60;99.90;;;;;;8376680;28;19924;-72
2023/06/28 10:50:43;;;;;;;;;;;19.70;99.90;;;;;;8384432;28;19924;-73
2023/06/28 10:54:45;;;;;;;;;;;19.80;99.90;;;;;;8382948;28;19924;-73
2023/06/28 10:58:53;;;;;;;;;;;19.90;99.90;;;;;;8377619;28;20023;-73
2023/06/28 11:03:03;;;;;;;;;;;20.00;99.90;;;;;;8384725;28;19925;-72
2023/06/28 11:07:09;;;;;;;;;;;20.10;99.90;;;;;;8359199;28;19925;-74
2023/06/28 11:11:34;;;;;;;;;;;20.20;99.90;;;;;;8384205;28;20063;-73
2023/06/28 11:15:37;;;;;;;;;;;20.30;99.90;;;;;;8376268;28;20292;-73
2023/06/28 11:19:39;;;;;;;;;;;20.30;99.90;;;;;;8394470;28;19932;-74
2023/06/28 11:23:41;;;;;;;;;;;20.40;99.90;;;;;;8386962;28;20400;-74
2023/06/28 11:27:45;;;;;;;;;;;20.40;99.90;;;;;;8393025;28;19935;-73
2023/06/28 11:31:48;;;;;;;;;;;20.40;99.90;;;;;;8391749;28;19938;-73
2023/06/28 11:35:51;;;;;;;;;;;20.50;99.90;;;;;;8385801;28;19979;-73
2023/06/28 11:39:52;;;;;;;;;;;20.60;99.90;;;;;;8390447;28;19924;-73
2023/06/28 11:44:01;;;;;;;;;;;20.60;99.90;;;;;;8391915;28;19932;-73
2023/06/28 11:48:03;;;;;;;;;;;20.80;99.90;;;;;;8397178;28;20119;-74
2023/06/28 11:52:05;;;;;;;;;;;20.90;99.90;;;;;;8376122;28;19962;-73
2023/06/28 11:56:07;;;;;;;;;;;21.00;99.90;;;;;;8395451;28;19932;-73
2023/06/28 12:00:09;;;;;;;;;;;21.10;99.90;;;;;;8394119;28;20469;-73
2023/06/28 12:04:18;;;;;;;;;;;21.20;99.90;;;;;;8392703;28;20010;-73
2023/06/28 12:08:23;;;;;;;;;;;21.20;99.90;;;;;;8390450;28;20392;-73
2023/06/28 12:12:34;;;;;;;;;;;21.20;99.90;;;;;;8386258;28;19978;-73
2023/06/28 12:16:37;;;;;;;;;;;21.30;99.90;;;;;;8403583;28;20347;-73
2023/06/28 12:20:38;;;;;;;;;;;21.40;99.90;;;;;;8391331;28;19979;-73
2023/06/28 12:24:40;;;;;;;;;;;21.40;99.90;;;;;;8389618;28;20569;-74
2023/06/28 12:28:47;;;;;;;;;;;21.60;99.90;;;;;;8388081;28;20344;-74
2023/06/28 12:32:49;;;;;;;;;;;21.60;99.90;;;;;;8384703;28;20482;-73
2023/06/28 12:36:53;;;;;;;;;;;21.70;99.90;;;;;;8400536;27;20019;-73
2023/06/28 12:40:55;;;;;;;;;;;21.60;99.90;;;;;;8391605;28;19928;-73
2023/06/28 12:44:59;;;;;;;;;;;21.60;99.90;;;;;;8391345;28;20382;-73
2023/06/28 12:49:02;;;;;;;;;;;21.60;99.90;;;;;;8392790;28;20331;-73
2023/06/28 12:53:04;;;;;;;;;;;21.50;99.90;;;;;;8393180;28;19931;-75
2023/06/28 12:57:06;;;;;;;;;;;21.40;99.90;;;;;;8387517;28;19976;-74
2023/06/28 13:01:08;;;;;;;;;;;21.40;99.90;;;;;;8389212;28;19924;-74
2023/06/28 13:05:09;;;;;;;;;;;21.40;99.90;;;;;;8397615;28;20018;-74
2023/06/28 13:09:12;;;;;;;;;;;21.40;99.90;;;;;;8393878;28;19928;-74
2023/06/28 13:13:14;;;;;;;;;;;21.40;99.90;;;;;;8403695;27;20271;-74
2023/06/28 13:17:15;;;;;;;;;;;21.40;99.90;;;;;;8392020;28;19932;-74
2023/06/28 13:21:17;;;;;;;;;;;21.40;99.90;;;;;;8393430;28;19927;-74
2023/06/28 13:25:20;;;;;;;;;;;21.40;99.90;;;;;;8382597;28;19983;-74
2023/06/28 13:29:23;;;;;;;;;;;21.40;99.90;;;;;;8403646;28;19994;-74
2023/06/28 13:33:25;;;;;;;;;;;21.30;99.90;;;;;;8390864;28;19924;-73
2023/06/28 13:37:27;;;;;;;;;;;21.30;99.90;;;;;;8391472;28;19932;-74
2023/06/28 13:41:30;;;;;;;;;;;21.30;99.90;;;;;;8390334;28;20367;-74
2023/06/28 13:45:34;;;;;;;;;;;21.30;99.90;;;;;;8387642;28;19986;-75
2023/06/28 13:49:35;;;;;;;;;;;21.30;99.90;;;;;;8404939;27;20376;-75
2023/06/28 13:53:37;;;;;;;;;;;21.30;99.90;;;;;;8373474;28;19929;-74
2023/06/28 13:57:39;;;;;;;;;;;21.30;99.90;;;;;;8393538;28;19983;-74
2023/06/28 14:01:41;;;;;;;;;;;21.30;99.90;;;;;;8391964;28;20372;-73
2023/06/28 14:05:42;;;;;;;;;;;21.40;99.90;;;;;;8394518;28;19932;-73
2023/06/28 14:09:44;;;;;;;;;;;21.40;99.90;;;;;;8391034;28;20007;-74
2023/06/28 14:13:46;;;;;;;;;;;21.40;99.90;;;;;;8388744;28;19925;-74
2023/06/28 14:17:47;;;;;;;;;;;21.40;99.90;;;;;;8385522;28;19957;-74
2023/06/28 14:21:49;;;;;;;;;;;21.50;99.90;;;;;;8386229;28;20387;-74
2023/06/28 14:25:51;;;;;;;;;;;21.50;99.90;;;;;;8387679;28;20139;-73
2023/06/28 14:29:53;;;;;;;;;;;21.50;99.90;;;;;;8385351;28;19979;-74
2023/06/28 14:33:54;;;;;;;;;;;21.50;99.90;;;;;;8385825;28;19935;-73
2023/06/28 14:38:02;;;;;;;;;;;21.60;99.90;;;;;;8395167;28;19993;-74
2023/06/28 14:42:04;;;;;;;;;;;21.60;99.90;;;;;;8384918;28;19939;-74
2023/06/28 14:46:06;;;;;;;;;;;21.60;99.90;;;;;;8395852;28;19993;-74
2023/06/28 14:50:08;;;;;;;;;;;21.60;99.90;;;;;;8390933;27;19928;-74
2023/06/28 14:54:09;;;;;;;;;;;21.70;99.90;;;;;;8376315;28;19927;-74
2023/06/28 14:58:11;;;;;;;;;;;21.60;99.90;;;;;;8387714;28;20687;-73
2023/06/28 15:02:13;;;;;;;;;;;21.60;99.90;;;;;;8400365;27;20394;-73
2023/06/28 15:06:15;;;;;;;;;;;21.60;99.90;;;;;;8388829;28;19932;-73
2023/06/28 15:10:16;;;;;;;;;;;21.60;99.90;;;;;;8390926;28;19932;-74
2023/06/28 15:14:18;;;;;;;;;;;21.60;99.90;;;;;;8394967;28;19928;-73
2023/06/28 15:18:20;;;;;;;;;;;21.60;99.90;;;;;;8409260;27;19924;-73
2023/06/28 15:22:22;;;;;;;;;;;21.60;99.90;;;;;;8409117;27;19951;-74
2023/06/28 15:26:24;;;;;;;;;;;21.60;99.90;;;;;;8406571;27;19986;-74
2023/06/28 15:30:25;;;;;;;;;;;21.60;99.90;;;;;;8391363;28;19931;-74
2023/06/28 15:34:27;;;;;;;;;;;21.60;99.90;;;;;;8405293;27;20361;-73
2023/06/28 15:38:29;;;;;;;;;;;21.60;99.90;;;;;;8387260;28;19929;-73
2023/06/28 15:42:31;;;;;;;;;;;21.70;99.90;;;;;;8381774;28;19974;-73
2023/06/28 15:46:33;;;;;;;;;;;21.70;99.90;;;;;;8402050;28;19928;-73
2023/06/28 15:50:35;;;;;;;;;;;21.70;99.90;;;;;;8390396;28;20391;-74
2023/06/28 15:54:38;;;;;;;;;;;21.70;99.90;;;;;;8386215;28;19932;-73
2023/06/28 15:58:40;;;;;;;;;;;21.80;99.90;;;;;;8379966;28;19936;-73
2023/06/28 16:02:42;;;;;;;;;;;21.80;99.90;;;;;;8390860;28;19931;-73
2023/06/28 16:16:51;;;;;;;;;;;21.90;99.90;;;;;;8385925;28;19935;-74
2023/06/28 16:20:53;;;;;;;;;;;21.90;99.90;;;;;;8391760;28;19943;-73
2023/06/28 16:24:54;;;;;;;;;;;21.90;99.90;;;;;;8389140;28;19935;-73
2023/06/28 16:28:56;;;;;;;;;;;21.90;99.90;;;;;;8388634;28;19985;-74
2023/06/28 16:32:58;;;;;;;;;;;21.90;99.90;;;;;;8397819;28;19940;-74
2023/06/28 16:37:00;;;;;;;;;;;21.90;99.90;;;;;;8391441;28;19950;-74
2023/06/28 16:41:01;;;;;;;;;;;21.90;99.90;;;;;;8388270;28;19928;-73
2023/06/28 16:45:03;;;;;;;;;;;21.90;99.90;;;;;;8389541;28;19963;-74
2023/06/28 16:49:05;;;;;;;;;;;21.90;99.90;;;;;;8393288;28;20283;-74
2023/06/28 16:53:06;;;;;;;;;;;21.90;99.90;;;;;;8388852;28;19940;-73
2023/06/28 16:57:08;;;;;;;;;;;21.90;99.90;;;;;;8379850;28;19928;-74
2023/06/28 17:01:10;;;;;;;;;;;21.90;99.90;;;;;;8384118;28;19928;-74
2023/06/28 17:05:13;;;;;;;;;;;21.90;99.90;;;;;;8415134;27;19978;-73
2023/06/28 17:09:16;;;;;;;;;;;21.90;99.90;;;;;;8404403;28;19925;-74
2023/06/28 17:13:17;;;;;;;;;;;21.90;99.90;;;;;;8390597;28;19977;-73
2023/06/28 17:17:19;;;;;;;;;;;21.90;99.90;;;;;;8389536;28;19988;-74
2023/06/28 17:21:21;;;;;;;;;;;21.90;99.90;;;;;;8386875;28;19935;-73
2023/06/28 17:25:23;;;;;;;;;;;21.90;99.90;;;;;;8389992;28;19928;-73
2023/06/28 17:29:25;;;;;;;;;;;21.90;99.90;;;;;;8383326;28;20439;-73
2023/06/28 17:33:26;;;;;;;;;;;21.90;99.90;;;;;;8389249;28;19940;-73
2023/06/28 17:37:28;;;;;;;;;;;21.90;99.90;;;;;;8388314;28;19962;-73
2023/06/28 17:41:30;;;;;;;;;;;21.90;99.90;;;;;;8400177;27;19948;-73
2023/06/28 17:45:31;;;;;;;;;;;21.90;99.90;;;;;;8388863;28;20402;-73
2023/06/28 17:49:33;;;;;;;;;;;21.90;99.90;;;;;;8388764;28;19932;-74
2023/06/28 17:53:36;;;;;;;;;;;21.90;99.90;;;;;;8372773;28;19974;-73
2023/06/28 17:57:38;;;;;;;;;;;21.90;99.90;;;;;;8388483;28;19931;-73
2023/06/28 18:01:40;;;;;;;;;;;21.80;99.90;;;;;;8388124;28;19978;-73
2023/06/28 18:05:41;;;;;;;;;;;21.90;99.90;;;;;;8387605;28;19929;-73
2023/06/28 18:09:43;;;;;;;;;;;21.80;99.90;;;;;;8383161;28;19928;-74
2023/06/28 18:13:45;;;;;;;;;;;21.90;99.90;;;;;;8388258;28;19933;-73
2023/06/28 18:17:46;;;;;;;;;;;21.90;99.90;;;;;;8376078;28;19928;-73
2023/06/28 18:21:48;;;;;;;;;;;21.80;99.90;;;;;;8381856;28;19924;-73
2023/06/28 18:25:50;;;;;;;;;;;21.90;99.90;;;;;;8388893;28;19928;-73
2023/06/28 18:29:51;;;;;;;;;;;21.90;99.90;;;;;;8373980;28;20371;-73
2023/06/28 18:33:53;;;;;;;;;;;21.90;99.90;;;;;;8383972;28;20043;-73
2023/06/28 18:37:55;;;;;;;;;;;21.80;99.90;;;;;;8378718;28;19924;-73
2023/06/28 18:41:56;;;;;;;;;;;21.80;99.90;;;;;;8386131;28;19947;-74
2023/06/28 18:45:58;;;;;;;;;;;21.80;99.90;;;;;;8382876;28;19928;-73
2023/06/28 18:50:00;;;;;;;;;;;21.80;99.90;;;;;;8382685;28;20179;-73
2023/06/28 18:54:02;;;;;;;;;;;21.80;99.90;;;;;;8385435;28;19933;-73
2023/06/28 19:08:11;;;;;;;;;;;21.80;99.90;;;;;;8385476;28;19971;-73
2023/06/28 19:12:13;;;;;;;;;;;21.70;99.90;;;;;;8387617;28;19985;-73
2023/06/28 19:16:15;;;;;;;;;;;21.70;99.90;;;;;;8384940;28;19925;-73
2023/06/28 19:20:17;;;;;;;;;;;21.70;99.90;;;;;;8390135;28;19988;-73
2023/06/28 19:24:18;;;;;;;;;;;21.70;99.90;;;;;;8384623;28;19924;-73
2023/06/28 19:28:21;;;;;;;;;;;21.70;99.90;;;;;;8386653;28;19932;-73
2023/06/28 19:32:23;;;;;;;;;;;21.70;99.90;;;;;;8380731;28;20342;-73
2023/06/28 19:36:25;;;;;;;;;;;21.70;99.90;;;;;;8387329;28;19996;-73
2023/06/28 19:40:26;;;;;;;;;;;21.70;99.90;;;;;;8397116;28;19934;-73
2023/06/28 19:44:28;;;;;;;;;;;21.70;99.90;;;;;;8388349;28;19931;-73
2023/06/28 19:48:31;;;;;;;;;;;21.70;99.90;;;;;;8391554;28;19929;-73
2023/06/28 19:52:33;;;;;;;;;;;21.70;99.90;;;;;;8375236;28;20438;-73
2023/06/28 19:56:34;;;;;;;;;;;21.60;99.90;;;;;;8391329;28;20019;-73
2023/06/28 20:00:36;;;;;;;;;;;21.60;99.90;;;;;;8398844;28;19928;-73
2023/06/28 20:04:38;;;;;;;;;;;21.50;99.90;;;;;;8385340;28;19932;-73
2023/06/28 20:08:40;;;;;;;;;;;21.50;99.90;;;;;;8404725;28;19925;-73
2023/06/28 20:12:42;;;;;;;;;;;21.50;99.90;;;;;;8392183;28;19928;-73
2023/06/28 20:16:44;;;;;;;;;;;21.50;99.90;;;;;;8393050;28;19993;-73
2023/06/28 20:20:46;;;;;;;;;;;21.50;99.90;;;;;;8392019;28;19929;-73
2023/06/28 20:24:48;;;;;;;;;;;21.40;99.90;;;;;;8391542;28;19924;-73
2023/06/28 20:28:50;;;;;;;;;;;21.40;99.90;;;;;;8388444;28;19924;-73
2023/06/28 20:32:52;;;;;;;;;;;21.40;99.90;;;;;;8389261;28;19932;-73
2023/06/28 20:36:53;;;;;;;;;;;21.40;99.90;;;;;;8390789;28;19964;-73
2023/06/28 20:40:56;;;;;;;;;;;21.40;99.90;;;;;;8391183;28;19946;-73
2023/06/28 20:44:57;;;;;;;;;;;21.40;99.90;;;;;;8392046;28;19928;-73
2023/06/28 20:48:59;;;;;;;;;;;21.30;99.90;;;;;;8389443;28;19935;-73
2023/06/28 20:53:01;;;;;;;;;;;21.30;99.90;;;;;;8392357;28;19924;-73
2023/06/28 20:57:03;;;;;;;;;;;21.30;99.90;;;;;;8391231;28;19982;-73
2023/06/28 21:01:07;;;;;;;;;;;21.30;99.90;;;;;;8393032;28;19925;-73
2023/06/28 21:05:11;;;;;;;;;;;21.30;99.90;;;;;;8413948;28;19931;-73
2023/06/28 21:09:13;;;;;;;;;;;21.30;99.90;;;;;;8403884;28;20302;-73
2023/06/28 21:13:14;;;;;;;;;;;21.30;99.90;;;;;;8418155;28;19931;-73
2023/06/28 21:17:16;;;;;;;;;;;21.30;99.90;;;;;;8411611;28;19935;-73
2023/06/28 21:21:18;;;;;;;;;;;21.30;99.90;;;;;;8422116;28;19927;-73
2023/06/28 21:25:19;;;;;;;;;;;21.20;99.90;;;;;;8402409;28;20372;-73
2023/06/28 21:29:21;;;;;;;;;;;21.20;99.90;;;;;;8420562;28;20261;-73
2023/06/28 21:33:23;;;;;;;;;;;21.20;99.90;;;;;;8401475;28;19933;-73
2023/06/28 21:37:25;;;;;;;;;;;21.20;99.90;;;;;;8401871;28;19948;-73
2023/06/28 21:41:27;;;;;;;;;;;21.10;99.90;;;;;;8406771;28;20368;-73
2023/06/28 21:45:28;;;;;;;;;;;21.10;99.90;;;;;;8414259;28;20307;-73
2023/06/28 21:49:30;;;;;;;;;;;21.10;99.90;;;;;;8431256;27;20276;-73
2023/06/28 21:53:32;;;;;;;;;;;21.10;99.90;;;;;;8391805;28;20360;-74
2023/06/28 22:07:51;;;;;;;;;;;21.00;99.90;;;;;;8428847;28;19918;-73
2023/06/28 22:11:53;;;;;;;;;;;21.00;99.90;;;;;;8399248;28;20406;-73
2023/06/28 22:15:54;;;;;;;;;;;21.00;99.90;;;;;;8414584;27;20003;-73
2023/06/28 22:19:56;;;;;;;;;;;21.00;99.90;;;;;;8407693;28;19929;-73
2023/06/28 22:23:58;;;;;;;;;;;21.00;99.90;;;;;;8426171;27;19974;-73
2023/06/28 22:28:00;;;;;;;;;;;21.00;99.90;;;;;;8411748;28;19924;-73
2023/06/28 22:32:01;;;;;;;;;;;21.00;99.90;;;;;;8409302;28;19935;-73
2023/06/28 22:36:03;;;;;;;;;;;21.00;99.90;;;;;;8408861;28;19932;-73
2023/06/28 22:40:07;;;;;;;;;;;21.00;99.90;;;;;;8418364;28;19969;-73
2023/06/28 22:44:10;;;;;;;;;;;20.90;99.90;;;;;;8401255;28;19990;-73
2023/06/28 22:48:12;;;;;;;;;;;20.90;99.90;;;;;;8401614;28;20387;-73
2023/06/28 22:52:14;;;;;;;;;;;20.90;99.90;;;;;;8402529;28;19931;-73
2023/06/28 22:56:16;;;;;;;;;;;20.80;99.90;;;;;;8407114;28;19930;-74
2023/06/28 23:00:18;;;;;;;;;;;20.80;99.90;;;;;;8394104;28;20375;-73
2023/06/28 23:04:20;;;;;;;;;;;20.80;99.90;;;;;;8422207;28;19924;-73
2023/06/28 23:08:21;;;;;;;;;;;20.70;99.90;;;;;;8400559;28;19928;-73
2023/06/28 23:12:23;;;;;;;;;;;20.70;99.90;;;;;;8409528;28;20341;-73
2023/06/28 23:16:25;;;;;;;;;;;20.70;99.90;;;;;;8399507;28;19935;-73
2023/06/28 23:20:26;;;;;;;;;;;20.70;99.90;;;;;;8413221;28;19924;-73
2023/06/28 23:24:29;;;;;;;;;;;20.60;99.90;;;;;;8381015;28;20256;-73
2023/06/28 23:28:31;;;;;;;;;;;20.60;99.90;;;;;;8420721;28;19971;-73
2023/06/28 23:32:33;;;;;;;;;;;20.60;99.90;;;;;;8419324;28;19932;-73
2023/06/28 23:36:35;;;;;;;;;;;20.60;99.90;;;;;;8425229;28;19923;-73
2023/06/28 23:40:36;;;;;;;;;;;20.50;99.90;;;;;;8427649;28;19928;-73
2023/06/28 23:44:38;;;;;;;;;;;20.50;99.90;;;;;;8413042;28;19931;-72
2023/06/28 23:48:44;;;;;;;;;;;20.40;99.90;;;;;;8414927;28;19924;-73
2023/06/28 23:52:46;;;;;;;;;;;20.40;99.90;;;;;;8412034;28;19986;-73
2023/06/28 23:56:48;;;;;;;;;;;20.40;99.90;;;;;;8391826;28;19924;-73
